createdAt,value
2022-09-23T00:02:33.693Z,-11088.28
2022-09-23T00:05:40.452Z,-11090.69
2022-09-23T00:08:46.811Z,-11098.97
2022-09-23T00:11:53.636Z,-11105.84
2022-09-23T00:15:01.106Z,-11104.88
2022-09-23T00:18:08.271Z,-11104.31
2022-09-23T00:21:15.709Z,-11108.22
2022-09-23T00:24:21.671Z,-11109.63
2022-09-23T00:27:29.159Z,-11122.84
2022-09-23T00:30:36.949Z,-11107.41
2022-09-23T00:33:43.179Z,-11117.78
2022-09-23T00:36:49.234Z,-11103.75
2022-09-23T00:39:55.667Z,-11111.75
2022-09-23T00:43:02.162Z,-11112.44
2022-09-23T00:46:11.436Z,-11102.34
2022-09-23T00:49:26.247Z,-11110.91
2022-09-23T00:52:33.672Z,-11118.06
2022-09-23T00:55:43.542Z,-11118.47
2022-09-23T00:58:52.218Z,-11112.44
2022-09-23T01:02:01.568Z,-11106.84
2022-09-23T01:05:09.386Z,-11104.31
2022-09-23T01:08:16.567Z,-11103.19
2022-09-23T01:11:38.165Z,-11104.03
2022-09-23T01:14:50.948Z,-11106.84
2022-09-23T01:18:07.504Z,-11098.13
2022-09-23T01:21:22.965Z,-11089.97
2022-09-23T01:24:49.097Z,-11094.19
2022-09-23T01:28:20.982Z,-11088.00
2022-09-23T01:31:35.374Z,-11081.00
2022-09-23T01:34:48.735Z,-11063.31
2022-09-23T01:38:01.395Z,-11065.00
2022-09-23T01:41:16.059Z,-11060.78
2022-09-23T01:44:30.603Z,-11078.47
2022-09-23T01:47:43.738Z,-11084.22
2022-09-23T01:50:58.284Z,-11084.06
2022-09-23T01:54:09.971Z,-11082.69
2022-09-23T01:57:19.465Z,-11099.53
2022-09-23T02:00:28.328Z,-11095.44
2022-09-23T02:03:42.962Z,-11092.78
2022-09-23T02:06:53.933Z,-11074.25
2022-09-23T02:10:05.326Z,-11073.41
2022-09-23T02:13:18.290Z,-11067.37
2022-09-23T02:16:31.640Z,-11063.03
2022-09-23T02:19:44.293Z,-11066.66
2022-09-23T02:22:58.000Z,-11067.37
2022-09-23T02:26:09.883Z,-11059.66
2022-09-23T02:29:22.080Z,-11072.72
2022-09-23T02:32:35.790Z,-11074.97
2022-09-23T02:35:54.521Z,-11063.03
2022-09-23T02:39:05.140Z,-11064.44
2022-09-23T02:42:16.551Z,-11058.25
2022-09-23T02:45:22.761Z,-11083.22
2022-09-23T02:48:33.414Z,-11081.00
2022-09-23T02:51:41.676Z,-11077.06
2022-09-23T02:54:47.958Z,-11076.22
2022-09-23T02:57:54.416Z,-11080.00
2022-09-23T03:01:07.997Z,-11077.47
2022-09-23T03:04:21.516Z,-11076.78
2022-09-23T03:07:37.934Z,-11085.75
2022-09-23T03:10:54.952Z,-11097.13
2022-09-23T03:14:18.184Z,-11081.41
2022-09-23T03:17:30.803Z,-11089.13
2022-09-23T03:20:42.944Z,-11064.44
2022-09-23T03:23:51.806Z,-11069.19
2022-09-23T03:27:02.053Z,-11065.97
2022-09-23T03:30:11.943Z,-11049.56
2022-09-23T03:33:19.846Z,-11048.72
2022-09-23T03:36:48.052Z,-11051.50
2022-09-23T03:40:02.316Z,-11065.41
2022-09-23T03:43:09.142Z,-11069.47
2022-09-23T03:46:18.572Z,-11065.97
2022-09-23T03:49:28.683Z,-11039.03
2022-09-23T03:52:35.100Z,-11062.31
2022-09-23T03:55:42.772Z,-11058.41
2022-09-23T03:58:48.992Z,-11050.13
2022-09-23T04:01:55.732Z,-11047.59
2022-09-23T04:05:01.863Z,-11038.34
2022-09-23T04:08:08.212Z,-11052.63
2022-09-23T04:11:16.154Z,-11051.50
2022-09-23T04:14:23.434Z,-11065.69
2022-09-23T04:17:30.304Z,-11073.41
2022-09-23T04:20:36.596Z,-11066.94
2022-09-23T04:23:43.103Z,-11065.28
2022-09-23T04:26:53.905Z,-11045.63
2022-09-23T04:29:59.902Z,-11057.28
2022-09-23T04:33:06.533Z,-11052.78
2022-09-23T04:36:12.995Z,-11047.44
2022-09-23T04:39:19.648Z,-11056.28
2022-09-23T04:42:29.823Z,-11053.91
2022-09-23T04:45:36.582Z,-11060.22
2022-09-23T04:48:43.420Z,-11068.78
2022-09-23T04:51:49.474Z,-11049.41
2022-09-23T04:54:55.682Z,-11045.50
2022-09-23T04:58:03.541Z,-11061.19
2022-09-23T05:01:11.525Z,-11051.78
2022-09-23T05:04:17.666Z,-11059.81
2022-09-23T05:07:24.603Z,-11054.19
2022-09-23T05:10:31.264Z,-11063.44
2022-09-23T05:13:38.879Z,-11069.34
2022-09-23T05:16:44.924Z,-11074.41
2022-09-23T05:19:51.169Z,-11073.97
2022-09-23T05:22:57.388Z,-11072.00
2022-09-23T05:26:06.062Z,-11082.41
2022-09-23T05:29:13.407Z,-11071.72
2022-09-23T05:32:19.386Z,-11077.63
2022-09-23T05:35:25.819Z,-11085.19
2022-09-23T05:38:32.871Z,-11075.94
2022-09-23T05:41:40.396Z,-11068.34
2022-09-23T05:44:48.355Z,-11080.44
2022-09-23T05:47:54.331Z,-11087.16
2022-09-23T05:51:01.375Z,-11096.72
2022-09-23T05:54:08.460Z,-11098.13
2022-09-23T05:57:15.090Z,-11099.81
2022-09-23T06:00:22.610Z,-11107.25
2022-09-23T06:03:28.964Z,-11100.66
2022-09-23T06:06:36.480Z,-11100.22
2022-09-23T06:09:43.496Z,-11109.91
2022-09-23T06:12:50.148Z,-11121.28
2022-09-23T06:16:00.489Z,-11085.63
2022-09-23T06:19:07.213Z,-11108.22
2022-09-23T06:22:16.968Z,-11098.69
2022-09-23T06:25:23.295Z,-11085.19
2022-09-23T06:28:32.301Z,-11076.91
2022-09-23T06:31:41.242Z,-11103.75
2022-09-23T06:34:51.861Z,-11125.09
2022-09-23T06:37:58.426Z,-11135.06
2022-09-23T06:41:04.792Z,-11148.41
2022-09-23T06:44:11.054Z,-11140.13
2022-09-23T06:47:18.538Z,-11121.72
2022-09-23T06:50:25.859Z,-11120.16
2022-09-23T06:53:33.196Z,-11132.38
2022-09-23T06:56:39.928Z,-11126.78
2022-09-23T06:59:46.156Z,-11154.03
2022-09-23T07:02:54.905Z,-11146.00
2022-09-23T07:06:02.223Z,-11164.16
2022-09-23T07:09:09.861Z,-11137.44
2022-09-23T07:12:16.355Z,-11181.28
2022-09-23T07:15:22.697Z,-11193.09
2022-09-23T07:18:36.479Z,-11196.19
2022-09-23T07:21:43.000Z,-11193.09
2022-09-23T07:24:49.200Z,-11211.38
2022-09-23T07:27:57.780Z,-11211.94
2022-09-23T07:31:07.755Z,-11228.25
2022-09-23T07:34:15.410Z,-11249.50
2022-09-23T07:37:21.565Z,-11254.72
2022-09-23T07:40:28.225Z,-11231.91
2022-09-23T07:43:34.417Z,-11220.09
2022-09-23T07:46:41.149Z,-11227.13
2022-09-23T07:49:48.614Z,-11251.91
2022-09-23T07:52:54.450Z,-11248.53
2022-09-23T07:56:00.764Z,-11244.31
2022-09-23T07:59:09.115Z,-11262.59
2022-09-23T08:02:16.576Z,-11254.28
2022-09-23T08:05:24.440Z,-11264.00
2022-09-23T08:08:53.158Z,-11274.84
2022-09-23T08:12:00.231Z,-11280.88
2022-09-23T08:15:07.307Z,-11268.38
2022-09-23T08:18:13.711Z,-11296.38
2022-09-23T08:21:22.712Z,-11289.91
2022-09-23T08:24:32.275Z,-11289.91
2022-09-23T08:27:39.352Z,-11309.75
2022-09-23T08:30:45.650Z,-11313.97
2022-09-23T08:33:55.997Z,-11302.56
2022-09-23T08:37:03.649Z,-11314.41
2022-09-23T08:40:10.740Z,-11322.41
2022-09-23T08:43:25.662Z,-11308.63
2022-09-23T08:46:36.457Z,-11331.44
2022-09-23T08:49:52.144Z,-11323.41
2022-09-23T08:53:03.495Z,-11344.81
2022-09-23T08:56:15.701Z,-11346.78
2022-09-23T08:59:28.893Z,-11337.50
2022-09-23T09:02:37.461Z,-11335.78
2022-09-23T09:05:53.606Z,-11342.69
2022-09-23T09:09:03.972Z,-11337.06
2022-09-23T09:12:16.965Z,-11345.09
2022-09-23T09:15:26.765Z,-11351.84
2022-09-23T09:18:36.536Z,-11359.03
2022-09-23T09:21:46.401Z,-11357.22
2022-09-23T09:25:02.201Z,-11370.59
2022-09-23T09:28:15.828Z,-11359.31
2022-09-23T09:31:28.667Z,-11363.97
2022-09-23T09:34:41.548Z,-11370.03
2022-09-23T09:37:49.265Z,-11366.66
2022-09-23T09:41:01.359Z,-11357.06
2022-09-23T09:44:20.591Z,-11368.06
2022-09-23T09:47:37.058Z,-11362.56
2022-09-23T09:50:47.273Z,-11378.34
2022-09-23T09:53:53.932Z,-11376.50
2022-09-23T09:57:06.195Z,-11360.31
2022-09-23T10:00:35.622Z,-11361.84
2022-09-23T10:03:44.886Z,-11367.91
2022-09-23T10:07:07.495Z,-11368.19
2022-09-23T10:10:32.231Z,-11383.13
2022-09-23T10:13:40.045Z,-11382.84
2022-09-23T10:16:49.013Z,-11377.06
2022-09-23T10:20:00.985Z,-11377.06
2022-09-23T10:23:09.969Z,-11372.44
2022-09-23T10:26:18.652Z,-11378.19
2022-09-23T10:29:30.457Z,-11393.41
2022-09-23T10:32:38.746Z,-11387.34
2022-09-23T10:35:57.326Z,-11390.19
2022-09-23T10:39:19.248Z,-11377.50
2022-09-23T10:42:52.192Z,-11389.19
2022-09-23T10:46:22.609Z,-11380.47
2022-09-23T10:49:50.010Z,-11377.78
2022-09-23T10:53:07.642Z,-11391.88
2022-09-23T10:56:26.950Z,-11385.09
2022-09-23T10:59:49.263Z,-11387.34
2022-09-23T11:03:25.046Z,-11399.47
2022-09-23T11:06:41.973Z,-11383.13
2022-09-23T11:10:45.598Z,-11413.56
2022-09-23T11:14:15.935Z,-11409.19
2022-09-23T11:17:46.823Z,-11395.81
2022-09-23T11:21:07.327Z,-11411.19
2022-09-23T11:24:35.653Z,-11401.16
2022-09-23T11:27:57.163Z,-11391.88
2022-09-23T11:31:15.207Z,-11414.97
2022-09-23T11:34:51.199Z,-11401.88
2022-09-23T11:38:07.630Z,-11397.94
2022-09-23T11:41:20.336Z,-11415.69
2022-09-23T11:44:31.360Z,-11395.53
2022-09-23T11:47:44.728Z,-11410.19
2022-09-23T11:50:58.999Z,-11414.13
2022-09-23T11:54:16.156Z,-11426.81
2022-09-23T11:57:45.910Z,-11412.44
2022-09-23T12:01:01.643Z,-11420.06
2022-09-23T12:04:20.459Z,-11426.69
2022-09-23T12:07:34.539Z,-11398.63
2022-09-23T12:10:53.025Z,-11398.34
2022-09-23T12:14:13.908Z,-11389.91
2022-09-23T12:17:39.829Z,-11413.00
2022-09-23T12:21:48.674Z,-11420.06
2022-09-23T12:24:56.150Z,-11424.56
2022-09-23T12:28:07.635Z,-11414.56
2022-09-23T12:31:17.234Z,-11420.91
2022-09-23T12:34:30.320Z,-11389.03
2022-09-23T12:37:39.338Z,-11418.38
2022-09-23T12:40:45.778Z,-11414.69
2022-09-23T12:43:56.437Z,-11418.22
2022-09-23T12:47:39.222Z,-11430.50
2022-09-23T12:50:52.159Z,-11417.38
2022-09-23T12:54:22.314Z,-11419.63
2022-09-23T12:57:42.916Z,-11412.44
2022-09-23T13:01:08.541Z,-11424.28
2022-09-23T13:04:49.372Z,-11429.94
2022-09-23T13:08:02.080Z,-11434.16
2022-09-23T13:11:17.548Z,-11429.94
2022-09-23T13:14:27.761Z,-11425.41
2022-09-23T13:17:38.937Z,-11430.34
2022-09-23T13:20:47.075Z,-11424.72
2022-09-23T13:24:20.977Z,-11402.00
2022-09-23T13:27:31.865Z,-11391.72
2022-09-23T13:30:49.884Z,-11410.75
2022-09-23T13:34:04.229Z,-11410.47
2022-09-23T13:37:22.730Z,-11416.38
2022-09-23T13:40:31.827Z,-11407.22
2022-09-23T13:43:42.676Z,-11405.13
2022-09-23T13:46:51.578Z,-11427.25
2022-09-23T13:49:59.416Z,-11405.53
2022-09-23T13:53:09.888Z,-11407.66
2022-09-23T13:56:17.175Z,-11415.97
2022-09-23T13:59:27.785Z,-11411.31
2022-09-23T14:06:02.423Z,-11405.81
2022-09-23T14:09:08.839Z,-11397.50
2022-09-23T14:12:15.583Z,-11401.44
2022-09-23T14:15:23.486Z,-11406.66
2022-09-23T14:18:35.180Z,-11400.59
2022-09-23T14:21:43.062Z,-11427.09
2022-09-23T14:24:50.501Z,-11478.16
2022-09-23T14:28:00.335Z,-11502.28
2022-09-23T14:31:07.202Z,-11496.75
2022-09-23T14:34:42.496Z,-11492.81
2022-09-23T14:38:10.116Z,-11472.09
2022-09-23T14:41:24.904Z,-11426.81
2022-09-23T14:44:33.362Z,-11380.75
2022-09-23T14:47:44.412Z,-11379.19
2022-09-23T14:50:55.659Z,-11366.50
2022-09-23T14:54:26.301Z,-11362.00
2022-09-23T14:57:32.570Z,-11354.94
2022-09-23T15:00:39.003Z,-11354.38
2022-09-23T15:03:48.445Z,-11349.59
2022-09-23T15:06:57.244Z,-11345.66
2022-09-23T15:10:07.880Z,-11343.13
2022-09-23T15:13:17.898Z,-11345.25
2022-09-23T15:16:28.503Z,-11342.97
2022-09-23T15:19:37.481Z,-11333.97
2022-09-23T15:22:48.460Z,-11334.66
2022-09-23T15:25:56.102Z,-11333.84
2022-09-23T15:29:02.560Z,-11330.16
2022-09-23T15:32:09.208Z,-11333.41
2022-09-23T15:35:16.545Z,-11327.63
2022-09-23T15:38:23.307Z,-11323.97
2022-09-23T15:41:33.131Z,-11310.31
2022-09-23T15:44:39.642Z,-11314.25
2022-09-23T15:47:46.424Z,-11300.31
2022-09-23T15:50:54.480Z,-11305.81
2022-09-23T15:54:00.821Z,-11296.38
2022-09-23T15:57:08.564Z,-11291.31
2022-09-23T16:00:16.185Z,-11289.34
2022-09-23T16:03:23.213Z,-11288.19
2022-09-23T16:06:29.663Z,-11284.56
2022-09-23T16:09:36.101Z,-11282.56
2022-09-23T16:12:43.668Z,-11283.69
2022-09-23T16:15:49.795Z,-11286.78
2022-09-23T16:18:56.767Z,-11277.09
2022-09-23T16:22:03.464Z,-11281.16
2022-09-23T16:25:12.744Z,-11282.28
2022-09-23T16:28:20.428Z,-11278.63
2022-09-23T16:31:29.691Z,-11276.66
2022-09-23T16:34:36.397Z,-11274.84
2022-09-23T16:37:47.015Z,-11274.41
2022-09-23T16:40:53.582Z,-11268.94
2022-09-23T16:44:02.256Z,-11268.38
2022-09-23T16:47:08.729Z,-11260.63
2022-09-23T16:50:17.084Z,-11250.34
2022-09-23T16:53:23.391Z,-11247.41
2022-09-23T16:56:31.062Z,-11238.38
2022-09-23T16:59:52.558Z,-11231.22
2022-09-23T17:03:16.492Z,-11240.78
2022-09-23T17:06:25.139Z,-11231.06
2022-09-23T17:09:31.476Z,-11223.75
2022-09-23T17:12:38.011Z,-11226.28
2022-09-23T17:15:45.783Z,-11222.91
2022-09-23T17:18:52.267Z,-11224.47
2022-09-23T17:21:58.691Z,-11212.78
2022-09-23T17:25:05.340Z,-11217.00
2022-09-23T17:28:11.658Z,-11217.56
2022-09-23T17:31:20.133Z,-11217.56
2022-09-23T17:34:28.992Z,-11216.03
2022-09-23T17:37:35.488Z,-11217.28
2022-09-23T17:40:42.352Z,-11207.72
2022-09-23T17:43:48.579Z,-11205.75
2022-09-23T17:46:56.098Z,-11202.94
2022-09-23T17:50:02.282Z,-11201.53
2022-09-23T17:53:08.555Z,-11203.78
2022-09-23T17:56:18.460Z,-11201.13
2022-09-23T17:59:24.312Z,-11195.06
2022-09-23T18:02:32.033Z,-11191.13
2022-09-23T18:05:38.419Z,-11197.03
2022-09-23T18:08:46.454Z,-11190.00
2022-09-23T18:11:52.635Z,-11188.19
2022-09-23T18:14:58.901Z,-11186.91
2022-09-23T18:18:07.885Z,-11185.22
2022-09-23T18:21:14.135Z,-11176.38
2022-09-23T18:24:31.816Z,-11170.34
2022-09-23T18:27:39.310Z,-11184.25
2022-09-23T18:30:54.032Z,-11186.78
2022-09-23T18:34:02.683Z,-11177.91
2022-09-23T18:37:15.617Z,-11169.22
2022-09-23T18:40:22.478Z,-11160.06
2022-09-23T18:43:37.519Z,-11169.06
2022-09-23T18:46:46.577Z,-11183.41
2022-09-23T18:50:11.630Z,-11181.28
2022-09-23T18:53:17.770Z,-11167.38
2022-09-23T18:56:24.683Z,-11155.28
2022-09-23T18:59:33.626Z,-11159.66
2022-09-23T19:02:39.830Z,-11165.28
2022-09-23T19:05:47.574Z,-11172.31
2022-09-23T19:08:55.331Z,-11161.75
2022-09-23T19:12:02.528Z,-11147.41
2022-09-23T19:15:09.720Z,-11153.19
2022-09-23T19:18:16.847Z,-11160.91
2022-09-23T19:21:24.832Z,-11161.63
2022-09-23T19:24:30.860Z,-11158.09
2022-09-23T19:27:37.296Z,-11158.94
2022-09-23T19:30:43.544Z,-11159.94
2022-09-23T19:33:56.675Z,-11156.28
2022-09-23T19:37:05.330Z,-11156.28
2022-09-23T19:40:12.120Z,-11133.38
2022-09-23T19:43:18.344Z,-11131.25
2022-09-23T19:46:24.593Z,-11117.50
2022-09-23T19:49:31.188Z,-11131.53
2022-09-23T19:52:38.744Z,-11126.22
2022-09-23T19:55:45.028Z,-11120.72
2022-09-23T19:58:54.431Z,-11107.69
2022-09-23T20:02:00.968Z,-11114.97
2022-09-23T20:05:09.912Z,-11116.94
2022-09-23T20:08:19.379Z,-11118.63
2022-09-23T20:11:28.362Z,-11109.34
2022-09-23T20:14:35.111Z,-11111.88
2022-09-23T20:17:41.522Z,-11084.34
2022-09-23T20:20:55.387Z,-11105.72
2022-09-23T20:24:05.821Z,-11107.13
2022-09-23T20:27:12.458Z,-11108.50
2022-09-23T20:30:19.292Z,-11093.06
2022-09-23T20:33:25.373Z,-11102.75
2022-09-23T20:36:32.346Z,-11097.56
2022-09-23T20:39:40.056Z,-11095.03
2022-09-23T20:42:49.199Z,-11100.38
2022-09-23T20:45:56.875Z,-11085.75
2022-09-23T20:49:03.796Z,-11083.50
2022-09-23T20:52:10.414Z,-11080.16
2022-09-23T20:55:18.267Z,-11087.31
2022-09-23T20:58:29.265Z,-11094.19
2022-09-23T21:01:36.761Z,-11089.28
2022-09-23T21:04:42.999Z,-11078.31
2022-09-23T21:07:49.259Z,-11082.41
2022-09-23T21:10:58.246Z,-11109.06
2022-09-23T21:14:04.386Z,-11113.44
2022-09-23T21:17:10.441Z,-11111.75
2022-09-23T21:20:16.955Z,-11114.97
2022-09-23T21:23:26.674Z,-11114.69
2022-09-23T21:26:34.237Z,-11116.66
2022-09-23T21:29:40.790Z,-11113.28
2022-09-23T21:32:47.011Z,-11117.78
2022-09-23T21:35:55.963Z,-11116.38
2022-09-23T21:39:03.163Z,-11115.53
2022-09-23T21:42:12.157Z,-11110.19
2022-09-23T21:45:18.736Z,-11108.94
2022-09-23T21:48:25.509Z,-11108.94
2022-09-23T21:51:38.836Z,-11071.03
2022-09-23T21:54:45.234Z,-11064.16
2022-09-23T21:57:52.895Z,-11072.00
2022-09-23T22:00:59.108Z,-11058.69
2022-09-23T22:04:08.619Z,-11046.75
2022-09-23T22:07:14.991Z,-11043.09
2022-09-23T22:10:21.240Z,-11071.72
2022-09-23T22:13:28.966Z,-11059.81
2022-09-23T22:16:36.063Z,-11043.53
2022-09-23T22:19:46.688Z,-11031.03
2022-09-23T22:22:53.312Z,-11035.09
2022-09-23T22:26:03.210Z,-11037.34
2022-09-23T22:29:31.602Z,-11041.41
2022-09-23T22:32:46.256Z,-11049.56
2022-09-23T22:35:52.637Z,-11049.97
2022-09-23T22:39:02.159Z,-11035.53
2022-09-23T22:42:08.659Z,-11033.13
2022-09-23T22:45:16.408Z,-11043.38
2022-09-23T22:48:22.863Z,-11053.19
2022-09-23T22:51:29.584Z,-11049.28
2022-09-23T22:54:36.914Z,-11067.22
2022-09-23T22:57:43.225Z,-11077.34
2022-09-23T23:00:55.884Z,-11056.84
2022-09-23T23:04:03.025Z,-11060.22
2022-09-23T23:07:09.667Z,-11060.50
2022-09-23T23:10:16.988Z,-11038.59
2022-09-23T23:13:23.647Z,-11029.91
2022-09-23T23:16:33.839Z,-11022.62
2022-09-23T23:19:40.045Z,-11027.66
2022-09-23T23:22:46.295Z,-11022.34
2022-09-23T23:25:52.592Z,-11017.56
2022-09-23T23:28:59.420Z,-11036.38
2022-09-23T23:32:07.792Z,-11059.66
2022-09-23T23:35:14.199Z,-11063.31
2022-09-23T23:38:20.363Z,-11063.03
2022-09-23T23:41:26.798Z,-11049.56
2022-09-23T23:44:34.591Z,-11060.78
2022-09-23T23:47:42.542Z,-11059.09
2022-09-23T23:50:54.823Z,-11037.22
2022-09-23T23:54:01.487Z,-11050.69
2022-09-23T23:57:08.088Z,-11050.69
